createdAt,value
2019-01-12T00:02:07.821Z,98339.00
2019-01-12T00:06:10.251Z,98330.00
2019-01-12T00:10:12.670Z,98323.00
2019-01-12T00:14:14.988Z,98321.00
2019-01-12T00:18:17.321Z,98309.00
2019-01-12T00:22:19.646Z,98317.00
2019-01-12T00:26:21.966Z,98325.00
2019-01-12T00:30:24.289Z,98326.00
2019-01-12T00:34:26.598Z,98324.00
2019-01-12T00:38:28.890Z,98336.00
2019-01-12T00:42:31.143Z,98326.00
2019-01-12T00:46:33.522Z,98323.00
2019-01-12T00:50:35.851Z,98324.00
2019-01-12T00:54:38.655Z,98328.00
2019-01-12T00:58:40.539Z,98325.00
2019-01-12T01:02:42.936Z,98328.00
2019-01-12T01:06:45.315Z,98335.00
2019-01-12T01:10:47.684Z,98337.00
2019-01-12T01:14:50.075Z,98335.00
2019-01-12T01:18:52.374Z,98344.00
2019-01-12T01:22:54.760Z,98341.00
2019-01-12T01:26:57.244Z,98349.00
2019-01-12T01:30:59.648Z,98349.00
2019-01-12T01:35:02.007Z,98347.00
2019-01-12T01:39:07.534Z,98348.00
2019-01-12T01:43:09.899Z,98356.00
2019-01-12T01:47:12.262Z,98357.00
2019-01-12T01:51:14.583Z,98360.00
2019-01-12T01:55:16.927Z,98359.00
2019-01-12T01:59:19.189Z,98355.00
2019-01-12T02:03:21.551Z,98359.00
2019-01-12T02:07:23.914Z,98356.00
2019-01-12T02:11:26.243Z,98359.00
2019-01-12T02:15:28.560Z,98351.00
2019-01-12T02:19:30.855Z,98353.00
2019-01-12T02:23:33.197Z,98353.00
2019-01-12T02:27:35.640Z,98347.00
2019-01-12T02:31:37.999Z,98355.00
2019-01-12T02:35:40.606Z,98346.00
2019-01-12T02:39:42.925Z,98349.00
2019-01-12T02:43:45.217Z,98336.00
2019-01-12T02:47:47.574Z,98347.00
2019-01-12T02:51:49.934Z,98343.00
2019-01-12T02:55:52.223Z,98335.00
2019-01-12T02:59:54.526Z,98299.00
2019-01-12T03:03:56.823Z,98342.00
2019-01-12T03:07:59.137Z,98342.00
2019-01-12T03:12:01.423Z,98342.00
2019-01-12T03:16:03.899Z,98338.00
2019-01-12T03:20:08.404Z,98336.00
2019-01-12T03:24:10.757Z,98335.00
2019-01-12T03:28:13.065Z,98334.00
2019-01-12T03:32:15.391Z,98338.00
2019-01-12T03:36:17.747Z,98339.00
2019-01-12T03:40:20.658Z,98338.00
2019-01-12T03:44:23.004Z,98336.00
2019-01-12T03:48:25.376Z,98328.00
2019-01-12T03:52:27.679Z,98333.00
2019-01-12T03:56:30.018Z,98324.00
2019-01-12T04:00:32.296Z,98319.00
2019-01-12T04:04:34.618Z,98319.00
2019-01-12T04:08:36.967Z,98310.00
2019-01-12T04:12:39.321Z,98306.00
2019-01-12T04:16:41.606Z,98314.00
2019-01-12T04:20:43.986Z,98308.00
2019-01-12T04:24:46.335Z,98308.00
2019-01-12T04:28:48.639Z,98327.00
2019-01-12T04:32:50.987Z,98305.00
2019-01-12T04:36:53.307Z,98310.00
2019-01-12T04:40:55.696Z,98298.00
2019-01-12T04:44:58.001Z,98294.00
2019-01-12T04:49:00.386Z,98292.00
2019-01-12T04:53:02.794Z,98290.00
2019-01-12T04:57:05.203Z,98289.00
2019-01-12T05:01:07.572Z,98288.00
2019-01-12T05:05:10.042Z,98286.00
2019-01-12T05:09:12.405Z,98281.00
2019-01-12T05:13:14.778Z,98288.00
2019-01-12T05:17:17.142Z,98288.00
2019-01-12T05:21:19.423Z,98288.00
2019-01-12T05:25:21.796Z,98282.00
2019-01-12T05:29:24.112Z,98289.00
2019-01-12T05:33:26.382Z,98287.00
2019-01-12T05:37:28.665Z,98285.00
2019-01-12T05:41:30.927Z,98282.00
2019-01-12T05:45:33.216Z,98284.00
2019-01-12T05:49:35.551Z,98297.00
2019-01-12T05:53:37.847Z,98302.00
2019-01-12T05:57:40.221Z,98299.00
2019-01-12T06:01:42.545Z,98308.00
2019-01-12T06:05:44.961Z,98313.00
2019-01-12T06:09:47.411Z,98307.00
2019-01-12T06:13:49.806Z,98298.00
2019-01-12T06:17:52.186Z,98297.00
2019-01-12T06:21:54.521Z,98304.00
2019-01-12T06:26:03.687Z,98304.00
2019-01-12T06:29:59.191Z,98310.00
2019-01-12T06:34:01.611Z,98303.00
2019-01-12T06:38:03.979Z,98304.00
2019-01-12T06:42:06.352Z,98289.00
2019-01-12T06:46:08.791Z,98289.00
2019-01-12T06:50:12.186Z,98295.00
2019-01-12T06:54:14.604Z,98307.00
2019-01-12T06:58:17.061Z,98312.00
2019-01-12T07:02:19.570Z,98307.00
2019-01-12T07:06:22.142Z,98311.00
2019-01-12T07:10:24.626Z,98301.00
2019-01-12T07:14:26.928Z,98305.00
2019-01-12T07:18:29.309Z,98305.00
2019-01-12T07:22:38.389Z,98299.00
2019-01-12T07:26:40.751Z,98303.00
2019-01-12T07:30:43.122Z,98308.00
2019-01-12T07:34:45.408Z,98308.00
2019-01-12T07:38:47.768Z,98310.00
2019-01-12T07:42:50.122Z,98305.00
2019-01-12T07:46:52.450Z,98315.00
2019-01-12T07:50:54.795Z,98312.00
2019-01-12T07:54:57.179Z,98296.00
2019-01-12T07:58:59.529Z,98305.00
2019-01-12T08:03:01.931Z,98306.00
2019-01-12T08:07:04.311Z,98293.00
2019-01-12T08:11:06.702Z,98284.00
2019-01-12T08:15:09.152Z,98298.00
2019-01-12T08:19:11.451Z,98296.00
2019-01-12T08:23:13.796Z,98286.00
2019-01-12T08:27:16.175Z,98279.00
2019-01-12T08:31:18.585Z,98285.00
2019-01-12T08:35:20.938Z,98282.00
2019-01-12T08:39:23.339Z,98275.00
2019-01-12T08:43:25.740Z,98273.00
2019-01-12T08:47:28.086Z,98285.00
2019-01-12T08:51:30.496Z,98274.00
2019-01-12T08:55:32.825Z,98279.00
2019-01-12T08:59:35.122Z,98269.00
2019-01-12T09:03:37.479Z,98273.00
2019-01-12T09:07:39.831Z,98274.00
2019-01-12T09:11:42.194Z,98282.00
2019-01-12T09:15:44.548Z,98261.00
2019-01-12T09:19:46.879Z,98240.00
2019-01-12T09:23:49.175Z,98248.00
2019-01-12T09:27:51.700Z,98238.00
2019-01-12T09:31:54.060Z,98233.00
2019-01-12T09:35:56.393Z,98234.00
2019-01-12T09:39:58.762Z,98239.00
2019-01-12T09:44:01.109Z,98233.00
2019-01-12T09:48:03.535Z,98230.00
2019-01-12T09:52:05.928Z,98221.00
2019-01-12T09:56:08.251Z,98219.00
2019-01-12T10:00:14.451Z,98211.00
2019-01-12T10:04:16.807Z,98226.00
2019-01-12T10:08:19.109Z,98239.00
2019-01-12T10:12:21.501Z,98227.00
2019-01-12T10:16:23.864Z,98206.00
2019-01-12T10:20:26.214Z,98197.00
2019-01-12T10:24:28.568Z,98163.00
2019-01-12T10:28:30.893Z,98169.00
2019-01-12T10:32:33.189Z,98154.00
2019-01-12T10:36:35.534Z,98154.00
2019-01-12T10:40:37.919Z,98137.00
2019-01-12T10:44:40.249Z,98141.00
2019-01-12T10:48:42.559Z,98132.00
2019-01-12T10:52:44.965Z,98112.00
2019-01-12T10:56:47.308Z,98114.00
2019-01-12T11:00:49.716Z,98110.00
2019-01-12T11:04:52.083Z,98102.00
2019-01-12T11:08:54.409Z,98102.00
2019-01-12T11:12:56.808Z,98089.00
2019-01-12T11:16:59.103Z,98095.00
2019-01-12T11:21:01.495Z,98085.00
2019-01-12T11:25:05.026Z,98081.00
2019-01-12T11:29:07.365Z,98064.00
2019-01-12T11:33:09.768Z,98070.00
2019-01-12T11:37:12.219Z,98067.00
2019-01-12T11:41:14.578Z,98067.00
2019-01-12T11:45:17.118Z,98033.00
2019-01-12T11:49:19.437Z,98042.00
2019-01-12T11:53:21.827Z,98031.00
2019-01-12T11:57:24.216Z,98028.00
2019-01-12T12:01:26.493Z,98011.00
2019-01-12T12:05:28.878Z,98027.00
2019-01-12T12:09:31.214Z,98015.00
2019-01-12T12:13:33.593Z,98000.00
2019-01-12T12:17:35.938Z,97998.00
2019-01-12T12:21:38.272Z,97988.00
2019-01-12T12:25:40.623Z,97990.00
2019-01-12T12:29:43.532Z,97973.00
2019-01-12T12:33:46.360Z,97961.00
2019-01-12T12:37:48.831Z,97946.00
2019-01-12T12:41:51.172Z,97936.00
2019-01-12T12:45:53.557Z,97925.00
2019-01-12T12:49:56.599Z,97916.00
2019-01-12T12:53:58.918Z,97910.00
2019-01-12T12:58:01.603Z,97907.00
2019-01-12T13:02:12.657Z,97893.00
2019-01-12T13:06:15.061Z,97884.00
2019-01-12T13:10:20.944Z,97865.00
2019-01-12T13:14:23.334Z,97854.00
2019-01-12T13:18:25.670Z,97851.00
2019-01-12T13:22:28.033Z,97845.00
2019-01-12T13:26:30.541Z,97829.00
2019-01-12T13:30:32.905Z,97824.00
2019-01-12T13:34:35.962Z,97827.00
2019-01-12T13:38:38.803Z,97817.00
2019-01-12T13:42:41.160Z,97815.00
2019-01-12T13:46:43.708Z,97803.00
2019-01-12T13:50:49.583Z,97813.00
2019-01-12T13:54:53.002Z,97791.00
2019-01-12T13:58:54.989Z,97790.00
2019-01-12T14:02:59.026Z,97775.00
2019-01-12T14:07:01.359Z,97780.00
2019-01-12T14:11:03.829Z,97775.00
2019-01-12T14:15:08.396Z,97766.00
2019-01-12T14:19:12.494Z,97773.00
2019-01-12T14:23:16.687Z,97759.00
2019-01-12T14:27:19.088Z,97737.00
2019-01-12T14:31:23.567Z,97723.00
2019-01-12T14:35:25.913Z,97733.00
2019-01-12T14:39:28.253Z,97727.00
2019-01-12T14:43:30.623Z,97724.00
2019-01-12T14:47:32.996Z,97713.00
2019-01-12T14:51:35.356Z,97713.00
2019-01-12T14:55:43.688Z,97721.00
2019-01-12T14:59:46.680Z,97710.00
2019-01-12T15:03:49.961Z,97699.00
2019-01-12T15:07:52.367Z,97701.00
2019-01-12T15:11:54.791Z,97702.00
2019-01-12T15:15:57.107Z,97703.00
2019-01-12T15:19:59.458Z,97687.00
2019-01-12T15:24:01.877Z,97674.00
2019-01-12T15:28:08.987Z,97674.00
2019-01-12T15:32:06.813Z,97673.00
2019-01-12T15:36:09.670Z,97661.00
2019-01-12T15:40:13.236Z,97663.00
2019-01-12T15:44:16.446Z,97666.00
2019-01-12T15:48:18.840Z,97673.00
2019-01-12T15:52:21.420Z,97662.00
2019-01-12T15:56:24.131Z,97659.00
2019-01-12T16:00:28.330Z,97649.00
2019-01-12T16:04:30.704Z,97658.00
2019-01-12T16:08:33.687Z,97657.00
2019-01-12T16:12:36.086Z,97657.00
2019-01-12T16:16:38.489Z,97652.00
2019-01-12T16:20:41.682Z,97652.00
2019-01-12T16:24:44.030Z,97641.00
2019-01-12T16:28:46.421Z,97645.00
2019-01-12T16:32:48.966Z,97638.00
2019-01-12T16:36:51.878Z,97635.00
2019-01-12T16:40:54.240Z,97622.00
2019-01-12T16:44:56.612Z,97603.00
2019-01-12T16:48:59.046Z,97602.00
2019-01-12T16:53:02.475Z,97592.00
2019-01-12T16:57:04.830Z,97594.00
2019-01-12T17:01:07.871Z,97588.00
2019-01-12T17:05:10.234Z,97581.00
2019-01-12T17:09:12.596Z,97573.00
2019-01-12T17:13:14.956Z,97573.00
2019-01-12T17:17:17.341Z,97568.00
2019-01-12T17:21:20.681Z,97554.00
2019-01-12T17:25:23.157Z,97548.00
2019-01-12T17:29:25.565Z,97539.00
2019-01-12T17:33:27.988Z,97542.00
2019-01-12T17:37:30.410Z,97512.00
2019-01-12T17:41:32.753Z,97533.00
2019-01-12T17:45:35.180Z,97529.00
2019-01-12T17:49:37.531Z,97522.00
2019-01-12T17:53:39.930Z,97512.00
2019-01-12T17:57:42.318Z,97505.00
2019-01-12T18:01:44.765Z,97492.00
2019-01-12T18:05:47.169Z,97481.00
2019-01-12T18:09:49.535Z,97486.00
2019-01-12T18:13:51.894Z,97474.00
2019-01-12T18:17:54.290Z,97476.00
2019-01-12T18:21:56.651Z,97475.00
2019-01-12T18:25:59.110Z,97471.00
2019-01-12T18:30:01.565Z,97468.00
2019-01-12T18:34:04.031Z,97468.00
2019-01-12T18:38:06.399Z,97469.00
2019-01-12T18:42:08.738Z,97461.00
2019-01-12T18:46:12.237Z,97454.00
2019-01-12T18:50:17.935Z,97453.00
2019-01-12T18:54:20.265Z,97459.00
2019-01-12T18:58:22.659Z,97460.00
2019-01-12T19:02:25.029Z,97466.00
2019-01-12T19:06:27.449Z,97472.00
2019-01-12T19:10:29.879Z,97474.00
2019-01-12T19:14:32.275Z,97471.00
2019-01-12T19:18:34.664Z,97461.00
2019-01-12T19:22:37.126Z,97460.00
2019-01-12T19:26:39.554Z,97464.00
2019-01-12T19:30:41.959Z,97474.00
2019-01-12T19:34:44.305Z,97477.00
2019-01-12T19:38:46.685Z,97479.00
2019-01-12T19:42:49.095Z,97480.00
2019-01-12T19:46:51.438Z,97477.00
2019-01-12T19:50:54.281Z,97465.00
2019-01-12T19:54:56.829Z,97468.00
2019-01-12T19:58:59.218Z,97458.00
2019-01-12T20:03:03.226Z,97447.00
2019-01-12T20:07:05.873Z,97439.00
2019-01-12T20:11:08.255Z,97434.00
2019-01-12T20:15:13.379Z,97437.00
2019-01-12T20:19:15.729Z,97442.00
2019-01-12T20:23:18.124Z,97440.00
2019-01-12T20:27:20.595Z,97447.00
2019-01-12T20:33:37.577Z,97442.00
2019-01-12T20:38:22.293Z,97448.00
2019-01-12T20:42:42.934Z,97434.00
2019-01-12T20:46:56.580Z,97435.00
2019-01-12T20:51:19.168Z,97436.00
2019-01-12T20:55:43.114Z,97430.00
2019-01-12T20:59:57.908Z,97437.00
2019-01-12T21:04:16.158Z,97430.00
2019-01-12T21:08:29.138Z,97427.00
2019-01-12T21:12:44.858Z,97442.00
2019-01-12T21:16:53.320Z,97429.00
2019-01-12T21:20:56.363Z,97422.00
2019-01-12T21:24:58.988Z,97421.00
2019-01-12T21:29:02.132Z,97414.00
2019-01-12T21:33:04.758Z,97410.00
2019-01-12T21:37:07.223Z,97412.00
2019-01-12T21:41:09.663Z,97396.00
2019-01-12T21:45:12.781Z,97401.00
2019-01-12T21:49:16.304Z,97402.00
2019-01-12T21:53:18.651Z,97413.00
2019-01-12T21:57:21.108Z,97402.00
2019-01-12T22:01:23.782Z,97392.00
2019-01-12T22:05:26.599Z,97401.00
2019-01-12T22:09:29.279Z,97381.00
2019-01-12T22:13:32.061Z,97397.00
2019-01-12T22:17:34.523Z,97383.00
2019-01-12T22:21:37.657Z,97398.00
2019-01-12T22:25:40.129Z,97375.00
2019-01-12T22:29:49.614Z,97388.00
2019-01-12T22:33:45.091Z,97382.00
2019-01-12T22:37:47.430Z,97380.00
2019-01-12T22:41:49.774Z,97388.00
2019-01-12T22:45:52.216Z,97383.00
2019-01-12T22:49:54.586Z,97372.00
2019-01-12T22:53:56.988Z,97367.00
2019-01-12T22:57:59.347Z,97376.00
2019-01-12T23:02:03.784Z,97346.00
2019-01-12T23:06:06.141Z,97271.00
2019-01-12T23:10:08.908Z,97360.00
2019-01-12T23:14:12.383Z,97372.00
2019-01-12T23:18:14.893Z,97381.00
2019-01-12T23:22:17.232Z,97378.00
2019-01-12T23:26:19.623Z,97368.00
2019-01-12T23:30:21.992Z,97363.00
2019-01-12T23:34:24.426Z,97369.00
2019-01-12T23:38:27.515Z,97359.00
2019-01-12T23:42:31.616Z,97341.00
2019-01-12T23:46:34.007Z,97345.00
2019-01-12T23:50:36.443Z,97334.00
2019-01-12T23:54:38.925Z,97327.00
2019-01-12T23:58:41.925Z,97332.00
